sensor_id;sensor_type;location;lat;lon;timestamp;P1;durP1;ratioP1;P2;durP2;ratioP2
13279;SDS011;6708;49.814;8.652;2022-10-16T00:01:43;0.57;;;0.40;;
13279;SDS011;6708;49.814;8.652;2022-10-16T00:04:11;2.90;;;0.40;;
13279;SDS011;6708;49.814;8.652;2022-10-16T00:06:40;0.20;;;0.20;;
13279;SDS011;6708;49.814;8.652;2022-10-16T00:09:08;0.30;;;0.30;;
13279;SDS011;6708;49.814;8.652;2022-10-16T00:11:38;2.33;;;0.40;;
13279;SDS011;6708;49.814;8.652;2022-10-16T00:14:10;0.37;;;0.37;;
13279;SDS011;6708;49.814;8.652;2022-10-16T00:16:40;0.50;;;0.30;;
13279;SDS011;6708;49.814;8.652;2022-10-16T00:19:09;0.97;;;0.30;;
13279;SDS011;6708;49.814;8.652;2022-10-16T00:21:37;0.10;;;0.10;;
13279;SDS011;6708;49.814;8.652;2022-10-16T00:24:06;0.10;;;0.10;;
13279;SDS011;6708;49.814;8.652;2022-10-16T00:26:36;0.37;;;0.33;;
13279;SDS011;6708;49.814;8.652;2022-10-16T00:29:05;0.30;;;0.30;;
13279;SDS011;6708;49.814;8.652;2022-10-16T00:31:37;0.37;;;0.37;;
13279;SDS011;6708;49.814;8.652;2022-10-16T00:34:05;0.20;;;0.20;;
13279;SDS011;6708;49.814;8.652;2022-10-16T00:36:34;0.20;;;0.20;;
13279;SDS011;6708;49.814;8.652;2022-10-16T00:39:02;0.10;;;0.10;;
13279;SDS011;6708;49.814;8.652;2022-10-16T00:41:32;0.20;;;0.20;;
13279;SDS011;6708;49.814;8.652;2022-10-16T00:44:01;0.20;;;0.20;;
13279;SDS011;6708;49.814;8.652;2022-10-16T00:46:35;0.10;;;0.10;;
13279;SDS011;6708;49.814;8.652;2022-10-16T00:49:07;0.00;;;0.00;;
13279;SDS011;6708;49.814;8.652;2022-10-16T00:51:37;0.13;;;0.10;;
13279;SDS011;6708;49.814;8.652;2022-10-16T00:54:08;0.00;;;0.00;;
13279;SDS011;6708;49.814;8.652;2022-10-16T00:56:38;0.20;;;0.20;;
13279;SDS011;6708;49.814;8.652;2022-10-16T00:59:07;0.10;;;0.03;;
13279;SDS011;6708;49.814;8.652;2022-10-16T01:01:44;2.30;;;0.10;;
13279;SDS011;6708;49.814;8.652;2022-10-16T01:04:13;0.20;;;0.00;;
13279;SDS011;6708;49.814;8.652;2022-10-16T01:06:43;0.23;;;0.13;;
13279;SDS011;6708;49.814;8.652;2022-10-16T01:09:16;1.20;;;0.10;;
13279;SDS011;6708;49.814;8.652;2022-10-16T01:11:49;0.17;;;0.10;;
13279;SDS011;6708;49.814;8.652;2022-10-16T01:14:26;0.10;;;0.10;;
13279;SDS011;6708;49.814;8.652;2022-10-16T01:17:01;0.10;;;0.10;;
13279;SDS011;6708;49.814;8.652;2022-10-16T01:19:37;0.10;;;0.10;;
13279;SDS011;6708;49.814;8.652;2022-10-16T01:22:12;0.10;;;0.10;;
13279;SDS011;6708;49.814;8.652;2022-10-16T01:24:43;0.00;;;0.00;;
13279;SDS011;6708;49.814;8.652;2022-10-16T01:27:16;0.10;;;0.10;;
13279;SDS011;6708;49.814;8.652;2022-10-16T01:29:51;0.20;;;0.20;;
13279;SDS011;6708;49.814;8.652;2022-10-16T01:32:24;0.20;;;0.20;;
13279;SDS011;6708;49.814;8.652;2022-10-16T01:34:58;0.23;;;0.20;;
13279;SDS011;6708;49.814;8.652;2022-10-16T01:37:32;0.10;;;0.10;;
13279;SDS011;6708;49.814;8.652;2022-10-16T01:40:05;0.30;;;0.30;;
13279;SDS011;6708;49.814;8.652;2022-10-16T01:42:38;0.20;;;0.20;;
13279;SDS011;6708;49.814;8.652;2022-10-16T01:45:08;0.30;;;0.30;;
13279;SDS011;6708;49.814;8.652;2022-10-16T01:47:39;0.20;;;0.20;;
13279;SDS011;6708;49.814;8.652;2022-10-16T01:50:09;0.20;;;0.20;;
13279;SDS011;6708;49.814;8.652;2022-10-16T01:52:39;0.20;;;0.20;;
13279;SDS011;6708;49.814;8.652;2022-10-16T01:55:09;1.27;;;0.20;;
13279;SDS011;6708;49.814;8.652;2022-10-16T01:57:42;0.37;;;0.37;;
13279;SDS011;6708;49.814;8.652;2022-10-16T02:00:14;0.40;;;0.40;;
13279;SDS011;6708;49.814;8.652;2022-10-16T02:02:46;0.30;;;0.30;;
13279;SDS011;6708;49.814;8.652;2022-10-16T02:05:18;0.27;;;0.27;;
13279;SDS011;6708;49.814;8.652;2022-10-16T02:07:49;0.70;;;0.70;;
13279;SDS011;6708;49.814;8.652;2022-10-16T02:10:17;0.40;;;0.40;;
13279;SDS011;6708;49.814;8.652;2022-10-16T02:12:49;0.37;;;0.37;;
13279;SDS011;6708;49.814;8.652;2022-10-16T02:15:20;0.50;;;0.50;;
13279;SDS011;6708;49.814;8.652;2022-10-16T02:17:49;0.60;;;0.60;;
13279;SDS011;6708;49.814;8.652;2022-10-16T02:20:17;0.40;;;0.40;;
13279;SDS011;6708;49.814;8.652;2022-10-16T02:22:47;0.50;;;0.50;;
13279;SDS011;6708;49.814;8.652;2022-10-16T02:25:18;0.43;;;0.43;;
13279;SDS011;6708;49.814;8.652;2022-10-16T02:27:53;0.60;;;0.60;;
13279;SDS011;6708;49.814;8.652;2022-10-16T02:30:25;1.00;;;0.43;;
13279;SDS011;6708;49.814;8.652;2022-10-16T02:32:57;0.60;;;0.60;;
13279;SDS011;6708;49.814;8.652;2022-10-16T02:35:27;0.50;;;0.50;;
13279;SDS011;6708;49.814;8.652;2022-10-16T02:37:55;0.77;;;0.60;;
13279;SDS011;6708;49.814;8.652;2022-10-16T02:40:25;0.47;;;0.40;;
13279;SDS011;6708;49.814;8.652;2022-10-16T02:42:57;0.57;;;0.57;;
13279;SDS011;6708;49.814;8.652;2022-10-16T02:45:25;0.40;;;0.40;;
13279;SDS011;6708;49.814;8.652;2022-10-16T02:47:54;1.43;;;0.90;;
13279;SDS011;6708;49.814;8.652;2022-10-16T02:50:22;0.60;;;0.60;;
13279;SDS011;6708;49.814;8.652;2022-10-16T02:52:51;0.90;;;0.90;;
13279;SDS011;6708;49.814;8.652;2022-10-16T02:55:20;0.87;;;0.87;;
13279;SDS011;6708;49.814;8.652;2022-10-16T02:57:48;1.03;;;1.03;;
13279;SDS011;6708;49.814;8.652;2022-10-16T03:00:20;0.80;;;0.80;;
13279;SDS011;6708;49.814;8.652;2022-10-16T03:02:49;1.10;;;1.10;;
13279;SDS011;6708;49.814;8.652;2022-10-16T03:05:17;1.20;;;1.10;;
13279;SDS011;6708;49.814;8.652;2022-10-16T03:07:46;1.10;;;1.10;;
13279;SDS011;6708;49.814;8.652;2022-10-16T03:10:14;1.27;;;1.27;;
13279;SDS011;6708;49.814;8.652;2022-10-16T03:12:43;1.23;;;1.23;;
13279;SDS011;6708;49.814;8.652;2022-10-16T03:15:11;1.07;;;1.07;;
13279;SDS011;6708;49.814;8.652;2022-10-16T03:17:42;2.00;;;1.53;;
13279;SDS011;6708;49.814;8.652;2022-10-16T03:20:11;1.10;;;1.10;;
13279;SDS011;6708;49.814;8.652;2022-10-16T03:22:39;0.90;;;0.90;;
13279;SDS011;6708;49.814;8.652;2022-10-16T03:25:08;0.97;;;0.90;;
13279;SDS011;6708;49.814;8.652;2022-10-16T03:27:36;1.07;;;1.00;;
13279;SDS011;6708;49.814;8.652;2022-10-16T03:30:06;1.00;;;0.90;;
13279;SDS011;6708;49.814;8.652;2022-10-16T03:32:35;2.13;;;1.20;;
13279;SDS011;6708;49.814;8.652;2022-10-16T03:35:07;1.10;;;1.00;;
13279;SDS011;6708;49.814;8.652;2022-10-16T03:37:35;0.97;;;0.97;;
13279;SDS011;6708;49.814;8.652;2022-10-16T03:40:04;0.97;;;0.97;;
13279;SDS011;6708;49.814;8.652;2022-10-16T03:42:34;1.33;;;1.27;;
13279;SDS011;6708;49.814;8.652;2022-10-16T03:45:02;1.00;;;1.00;;
13279;SDS011;6708;49.814;8.652;2022-10-16T03:47:31;0.80;;;0.80;;
13279;SDS011;6708;49.814;8.652;2022-10-16T03:50:00;1.20;;;1.20;;
13279;SDS011;6708;49.814;8.652;2022-10-16T03:52:31;1.17;;;1.17;;
13279;SDS011;6708;49.814;8.652;2022-10-16T03:54:59;1.33;;;1.23;;
13279;SDS011;6708;49.814;8.652;2022-10-16T03:57:28;1.33;;;1.20;;
13279;SDS011;6708;49.814;8.652;2022-10-16T03:59:56;1.67;;;1.67;;
13279;SDS011;6708;49.814;8.652;2022-10-16T04:02:25;1.53;;;1.43;;
13279;SDS011;6708;49.814;8.652;2022-10-16T04:04:53;1.50;;;1.50;;
13279;SDS011;6708;49.814;8.652;2022-10-16T04:07:22;1.30;;;1.30;;
13279;SDS011;6708;49.814;8.652;2022-10-16T04:09:53;1.30;;;1.30;;
13279;SDS011;6708;49.814;8.652;2022-10-16T04:12:23;1.60;;;1.40;;
13279;SDS011;6708;49.814;8.652;2022-10-16T04:14:52;1.20;;;1.10;;
13279;SDS011;6708;49.814;8.652;2022-10-16T04:17:20;0.87;;;0.80;;
13279;SDS011;6708;49.814;8.652;2022-10-16T04:19:49;0.90;;;0.90;;
13279;SDS011;6708;49.814;8.652;2022-10-16T04:22:17;1.37;;;0.90;;
13279;SDS011;6708;49.814;8.652;2022-10-16T04:24:46;0.87;;;0.87;;
13279;SDS011;6708;49.814;8.652;2022-10-16T04:27:17;1.67;;;0.87;;
13279;SDS011;6708;49.814;8.652;2022-10-16T04:29:45;0.73;;;0.73;;
13279;SDS011;6708;49.814;8.652;2022-10-16T04:32:14;0.93;;;0.93;;
13279;SDS011;6708;49.814;8.652;2022-10-16T04:34:42;0.73;;;0.73;;
13279;SDS011;6708;49.814;8.652;2022-10-16T04:37:10;0.70;;;0.70;;
13279;SDS011;6708;49.814;8.652;2022-10-16T04:39:39;0.80;;;0.80;;
13279;SDS011;6708;49.814;8.652;2022-10-16T04:42:07;0.60;;;0.60;;
13279;SDS011;6708;49.814;8.652;2022-10-16T04:44:38;0.87;;;0.87;;
13279;SDS011;6708;49.814;8.652;2022-10-16T04:47:07;0.80;;;0.80;;
13279;SDS011;6708;49.814;8.652;2022-10-16T04:49:35;1.00;;;1.00;;
13279;SDS011;6708;49.814;8.652;2022-10-16T04:52:04;0.97;;;0.97;;
13279;SDS011;6708;49.814;8.652;2022-10-16T04:54:34;1.03;;;1.03;;
13279;SDS011;6708;49.814;8.652;2022-10-16T04:57:02;0.63;;;0.63;;
13279;SDS011;6708;49.814;8.652;2022-10-16T04:59:31;0.70;;;0.70;;
13279;SDS011;6708;49.814;8.652;2022-10-16T05:02:02;0.80;;;0.80;;
13279;SDS011;6708;49.814;8.652;2022-10-16T05:04:31;0.67;;;0.67;;
13279;SDS011;6708;49.814;8.652;2022-10-16T05:06:59;1.03;;;0.57;;
13279;SDS011;6708;49.814;8.652;2022-10-16T05:09:28;1.00;;;1.00;;
13279;SDS011;6708;49.814;8.652;2022-10-16T05:11:56;0.67;;;0.67;;
13279;SDS011;6708;49.814;8.652;2022-10-16T05:14:25;1.13;;;0.73;;
13279;SDS011;6708;49.814;8.652;2022-10-16T05:16:53;0.83;;;0.83;;
13279;SDS011;6708;49.814;8.652;2022-10-16T05:19:24;1.27;;;0.90;;
13279;SDS011;6708;49.814;8.652;2022-10-16T05:21:52;0.70;;;0.70;;
13279;SDS011;6708;49.814;8.652;2022-10-16T05:24:21;2.63;;;0.53;;
13279;SDS011;6708;49.814;8.652;2022-10-16T05:26:49;0.87;;;0.80;;
13279;SDS011;6708;49.814;8.652;2022-10-16T05:29:18;0.80;;;0.80;;
13279;SDS011;6708;49.814;8.652;2022-10-16T05:31:49;0.60;;;0.60;;
13279;SDS011;6708;49.814;8.652;2022-10-16T05:34:18;1.07;;;1.07;;
13279;SDS011;6708;49.814;8.652;2022-10-16T05:36:50;0.70;;;0.70;;
13279;SDS011;6708;49.814;8.652;2022-10-16T05:39:18;0.83;;;0.67;;
13279;SDS011;6708;49.814;8.652;2022-10-16T05:41:49;1.27;;;0.70;;
13279;SDS011;6708;49.814;8.652;2022-10-16T05:44:17;0.60;;;0.60;;
13279;SDS011;6708;49.814;8.652;2022-10-16T05:46:46;0.97;;;0.80;;
13279;SDS011;6708;49.814;8.652;2022-10-16T05:49:14;1.70;;;0.70;;
13279;SDS011;6708;49.814;8.652;2022-10-16T05:51:43;0.60;;;0.60;;
13279;SDS011;6708;49.814;8.652;2022-10-16T05:54:14;0.60;;;0.60;;
13279;SDS011;6708;49.814;8.652;2022-10-16T05:56:43;0.53;;;0.53;;
13279;SDS011;6708;49.814;8.652;2022-10-16T05:59:11;0.70;;;0.70;;
13279;SDS011;6708;49.814;8.652;2022-10-16T06:01:39;0.60;;;0.60;;
13279;SDS011;6708;49.814;8.652;2022-10-16T06:04:08;0.93;;;0.90;;
13279;SDS011;6708;49.814;8.652;2022-10-16T06:06:36;0.63;;;0.63;;
13279;SDS011;6708;49.814;8.652;2022-10-16T06:09:05;5.30;;;0.90;;
13279;SDS011;6708;49.814;8.652;2022-10-16T06:11:37;1.60;;;0.73;;
13279;SDS011;6708;49.814;8.652;2022-10-16T06:14:05;0.67;;;0.67;;
13279;SDS011;6708;49.814;8.652;2022-10-16T06:16:34;0.70;;;0.70;;
13279;SDS011;6708;49.814;8.652;2022-10-16T06:19:03;0.80;;;0.80;;
13279;SDS011;6708;49.814;8.652;2022-10-16T06:21:33;0.87;;;0.80;;
13279;SDS011;6708;49.814;8.652;2022-10-16T06:24:02;0.80;;;0.80;;
13279;SDS011;6708;49.814;8.652;2022-10-16T06:26:30;0.93;;;0.93;;
13279;SDS011;6708;49.814;8.652;2022-10-16T06:29:02;0.50;;;0.50;;
13279;SDS011;6708;49.814;8.652;2022-10-16T06:31:30;0.60;;;0.60;;
13279;SDS011;6708;49.814;8.652;2022-10-16T06:33:59;0.70;;;0.70;;
13279;SDS011;6708;49.814;8.652;2022-10-16T06:36:29;0.53;;;0.53;;
13279;SDS011;6708;49.814;8.652;2022-10-16T06:38:58;0.60;;;0.60;;
13279;SDS011;6708;49.814;8.652;2022-10-16T06:41:26;0.57;;;0.57;;
13279;SDS011;6708;49.814;8.652;2022-10-16T06:44:04;0.83;;;0.83;;
13279;SDS011;6708;49.814;8.652;2022-10-16T06:46:33;0.60;;;0.60;;
13279;SDS011;6708;49.814;8.652;2022-10-16T06:49:02;0.53;;;0.53;;
13279;SDS011;6708;49.814;8.652;2022-10-16T06:51:31;1.03;;;0.60;;
13279;SDS011;6708;49.814;8.652;2022-10-16T06:54:01;0.63;;;0.63;;
13279;SDS011;6708;49.814;8.652;2022-10-16T06:56:30;0.60;;;0.60;;
13279;SDS011;6708;49.814;8.652;2022-10-16T06:59:02;0.47;;;0.47;;
13279;SDS011;6708;49.814;8.652;2022-10-16T07:01:31;0.57;;;0.57;;
13279;SDS011;6708;49.814;8.652;2022-10-16T07:04:00;0.63;;;0.63;;
13279;SDS011;6708;49.814;8.652;2022-10-16T07:06:31;0.60;;;0.60;;
13279;SDS011;6708;49.814;8.652;2022-10-16T07:09:02;0.83;;;0.60;;
13279;SDS011;6708;49.814;8.652;2022-10-16T07:11:32;1.30;;;0.70;;
13279;SDS011;6708;49.814;8.652;2022-10-16T07:14:03;1.33;;;0.50;;
13279;SDS011;6708;49.814;8.652;2022-10-16T07:16:32;0.40;;;0.40;;
13279;SDS011;6708;49.814;8.652;2022-10-16T07:19:02;0.73;;;0.73;;
13279;SDS011;6708;49.814;8.652;2022-10-16T07:21:31;1.00;;;1.00;;
13279;SDS011;6708;49.814;8.652;2022-10-16T07:24:02;0.80;;;0.80;;
13279;SDS011;6708;49.814;8.652;2022-10-16T07:26:34;0.60;;;0.60;;
13279;SDS011;6708;49.814;8.652;2022-10-16T07:29:07;0.67;;;0.40;;
13279;SDS011;6708;49.814;8.652;2022-10-16T07:31:38;0.83;;;0.83;;
13279;SDS011;6708;49.814;8.652;2022-10-16T07:34:07;0.40;;;0.40;;
13279;SDS011;6708;49.814;8.652;2022-10-16T07:36:38;0.57;;;0.57;;
13279;SDS011;6708;49.814;8.652;2022-10-16T07:39:07;0.70;;;0.70;;
13279;SDS011;6708;49.814;8.652;2022-10-16T07:41:35;0.73;;;0.50;;
13279;SDS011;6708;49.814;8.652;2022-10-16T07:44:07;0.63;;;0.40;;
13279;SDS011;6708;49.814;8.652;2022-10-16T07:46:35;0.70;;;0.70;;
13279;SDS011;6708;49.814;8.652;2022-10-16T07:49:04;0.60;;;0.60;;
13279;SDS011;6708;49.814;8.652;2022-10-16T07:51:32;0.50;;;0.50;;
13279;SDS011;6708;49.814;8.652;2022-10-16T07:54:01;1.03;;;0.83;;
13279;SDS011;6708;49.814;8.652;2022-10-16T07:56:30;1.33;;;0.43;;
13279;SDS011;6708;49.814;8.652;2022-10-16T07:58:58;0.80;;;0.80;;
13279;SDS011;6708;49.814;8.652;2022-10-16T08:01:30;0.60;;;0.60;;
13279;SDS011;6708;49.814;8.652;2022-10-16T08:03:58;0.50;;;0.50;;
13279;SDS011;6708;49.814;8.652;2022-10-16T08:06:27;1.27;;;0.87;;
13279;SDS011;6708;49.814;8.652;2022-10-16T08:08:56;0.63;;;0.50;;
13279;SDS011;6708;49.814;8.652;2022-10-16T08:11:25;0.73;;;0.73;;
13279;SDS011;6708;49.814;8.652;2022-10-16T08:13:53;0.40;;;0.40;;
13279;SDS011;6708;49.814;8.652;2022-10-16T08:16:22;0.90;;;0.60;;
13279;SDS011;6708;49.814;8.652;2022-10-16T08:18:52;0.90;;;0.90;;
13279;SDS011;6708;49.814;8.652;2022-10-16T08:21:21;0.50;;;0.50;;
13279;SDS011;6708;49.814;8.652;2022-10-16T08:23:52;0.53;;;0.53;;
13279;SDS011;6708;49.814;8.652;2022-10-16T08:26:21;0.40;;;0.40;;
13279;SDS011;6708;49.814;8.652;2022-10-16T08:28:49;0.80;;;0.47;;
13279;SDS011;6708;49.814;8.652;2022-10-16T08:31:18;0.57;;;0.57;;
13279;SDS011;6708;49.814;8.652;2022-10-16T08:33:47;1.17;;;1.03;;
13279;SDS011;6708;49.814;8.652;2022-10-16T08:36:20;0.40;;;0.40;;
13279;SDS011;6708;49.814;8.652;2022-10-16T08:38:49;0.77;;;0.77;;
13279;SDS011;6708;49.814;8.652;2022-10-16T08:44:26;5.50;;;1.20;;
13279;SDS011;6708;49.814;8.652;2022-10-16T08:47:02;0.50;;;0.50;;
13279;SDS011;6708;49.814;8.652;2022-10-16T08:49:36;1.13;;;1.07;;
13279;SDS011;6708;49.814;8.652;2022-10-16T08:52:10;5.30;;;1.10;;
13279;SDS011;6708;49.814;8.652;2022-10-16T08:54:40;0.80;;;0.80;;
13279;SDS011;6708;49.814;8.652;2022-10-16T08:57:11;0.90;;;0.90;;
13279;SDS011;6708;49.814;8.652;2022-10-16T08:59:42;1.37;;;1.00;;
13279;SDS011;6708;49.814;8.652;2022-10-16T09:02:29;0.80;;;0.80;;
13279;SDS011;6708;49.814;8.652;2022-10-16T09:05:03;1.00;;;0.90;;
13279;SDS011;6708;49.814;8.652;2022-10-16T09:07:58;1.30;;;1.17;;
13279;SDS011;6708;49.814;8.652;2022-10-16T09:10:34;0.80;;;0.80;;
13279;SDS011;6708;49.814;8.652;2022-10-16T09:13:10;1.70;;;0.80;;
13279;SDS011;6708;49.814;8.652;2022-10-16T09:15:43;0.60;;;0.60;;
13279;SDS011;6708;49.814;8.652;2022-10-16T09:18:19;1.03;;;0.70;;
13279;SDS011;6708;49.814;8.652;2022-10-16T09:20:51;0.67;;;0.67;;
13279;SDS011;6708;49.814;8.652;2022-10-16T09:23:27;0.50;;;0.50;;
13279;SDS011;6708;49.814;8.652;2022-10-16T09:25:56;0.60;;;0.60;;
13279;SDS011;6708;49.814;8.652;2022-10-16T09:28:26;0.80;;;0.80;;
13279;SDS011;6708;49.814;8.652;2022-10-16T09:30:55;0.73;;;0.73;;
13279;SDS011;6708;49.814;8.652;2022-10-16T09:33:25;1.00;;;1.00;;
13279;SDS011;6708;49.814;8.652;2022-10-16T09:35:57;0.73;;;0.73;;
13279;SDS011;6708;49.814;8.652;2022-10-16T09:38:30;1.07;;;1.00;;
13279;SDS011;6708;49.814;8.652;2022-10-16T09:41:00;1.03;;;0.90;;
13279;SDS011;6708;49.814;8.652;2022-10-16T09:43:32;0.50;;;0.50;;
13279;SDS011;6708;49.814;8.652;2022-10-16T09:46:03;0.77;;;0.77;;
13279;SDS011;6708;49.814;8.652;2022-10-16T09:48:36;0.70;;;0.70;;
13279;SDS011;6708;49.814;8.652;2022-10-16T09:51:06;0.83;;;0.83;;
13279;SDS011;6708;49.814;8.652;2022-10-16T09:53:44;1.13;;;0.63;;
13279;SDS011;6708;49.814;8.652;2022-10-16T09:56:21;0.60;;;0.60;;
13279;SDS011;6708;49.814;8.652;2022-10-16T09:58:50;0.80;;;0.80;;
13279;SDS011;6708;49.814;8.652;2022-10-16T10:01:19;0.37;;;0.37;;
13279;SDS011;6708;49.814;8.652;2022-10-16T10:03:49;0.40;;;0.40;;
13279;SDS011;6708;49.814;8.652;2022-10-16T10:06:24;1.90;;;0.50;;
13279;SDS011;6708;49.814;8.652;2022-10-16T10:09:00;1.13;;;0.80;;
13279;SDS011;6708;49.814;8.652;2022-10-16T10:11:41;0.90;;;0.90;;
13279;SDS011;6708;49.814;8.652;2022-10-16T10:14:22;1.10;;;0.50;;
13279;SDS011;6708;49.814;8.652;2022-10-16T10:16:52;0.50;;;0.50;;
13279;SDS011;6708;49.814;8.652;2022-10-16T10:19:29;1.60;;;0.40;;
13279;SDS011;6708;49.814;8.652;2022-10-16T10:21:58;0.60;;;0.60;;
13279;SDS011;6708;49.814;8.652;2022-10-16T10:24:29;0.40;;;0.40;;
13279;SDS011;6708;49.814;8.652;2022-10-16T10:27:00;0.40;;;0.40;;
13279;SDS011;6708;49.814;8.652;2022-10-16T10:29:36;0.57;;;0.57;;
13279;SDS011;6708;49.814;8.652;2022-10-16T10:32:16;0.53;;;0.53;;
13279;SDS011;6708;49.814;8.652;2022-10-16T10:34:52;0.40;;;0.40;;
13279;SDS011;6708;49.814;8.652;2022-10-16T10:37:38;0.60;;;0.60;;
13279;SDS011;6708;49.814;8.652;2022-10-16T10:40:22;0.57;;;0.43;;
13279;SDS011;6708;49.814;8.652;2022-10-16T10:42:57;0.47;;;0.47;;
13279;SDS011;6708;49.814;8.652;2022-10-16T10:45:32;0.60;;;0.60;;
13279;SDS011;6708;49.814;8.652;2022-10-16T10:48:12;0.57;;;0.57;;
13279;SDS011;6708;49.814;8.652;2022-10-16T10:50:46;0.50;;;0.50;;
13279;SDS011;6708;49.814;8.652;2022-10-16T10:53:23;1.77;;;0.77;;
13279;SDS011;6708;49.814;8.652;2022-10-16T10:56:03;1.70;;;0.80;;
13279;SDS011;6708;49.814;8.652;2022-10-16T10:58:48;0.50;;;0.50;;
13279;SDS011;6708;49.814;8.652;2022-10-16T11:01:25;1.00;;;1.00;;
13279;SDS011;6708;49.814;8.652;2022-10-16T11:04:05;0.67;;;0.67;;
13279;SDS011;6708;49.814;8.652;2022-10-16T11:06:55;0.60;;;0.60;;
13279;SDS011;6708;49.814;8.652;2022-10-16T11:09:27;0.50;;;0.50;;
13279;SDS011;6708;49.814;8.652;2022-10-16T11:12:02;0.70;;;0.70;;
13279;SDS011;6708;49.814;8.652;2022-10-16T11:14:36;0.50;;;0.50;;
13279;SDS011;6708;49.814;8.652;2022-10-16T11:17:10;0.83;;;0.83;;
13279;SDS011;6708;49.814;8.652;2022-10-16T11:19:43;0.50;;;0.50;;
13279;SDS011;6708;49.814;8.652;2022-10-16T11:22:16;0.77;;;0.77;;
13279;SDS011;6708;49.814;8.652;2022-10-16T11:24:48;0.37;;;0.37;;
13279;SDS011;6708;49.814;8.652;2022-10-16T11:27:26;0.63;;;0.63;;
13279;SDS011;6708;49.814;8.652;2022-10-16T11:29:58;3.10;;;0.63;;
13279;SDS011;6708;49.814;8.652;2022-10-16T11:32:28;1.15;;;0.88;;
13279;SDS011;6708;49.814;8.652;2022-10-16T11:35:02;1.13;;;0.70;;
13279;SDS011;6708;49.814;8.652;2022-10-16T11:37:37;0.90;;;0.80;;
13279;SDS011;6708;49.814;8.652;2022-10-16T11:40:14;2.70;;;0.77;;
13279;SDS011;6708;49.814;8.652;2022-10-16T11:42:51;0.93;;;0.90;;
13279;SDS011;6708;49.814;8.652;2022-10-16T11:45:24;1.00;;;0.90;;
13279;SDS011;6708;49.814;8.652;2022-10-16T11:47:58;0.95;;;0.95;;
13279;SDS011;6708;49.814;8.652;2022-10-16T11:50:31;0.90;;;0.90;;
13279;SDS011;6708;49.814;8.652;2022-10-16T11:53:07;0.82;;;0.82;;
13279;SDS011;6708;49.814;8.652;2022-10-16T11:55:42;1.20;;;1.10;;
13279;SDS011;6708;49.814;8.652;2022-10-16T11:58:16;0.80;;;0.80;;
13279;SDS011;6708;49.814;8.652;2022-10-16T12:00:53;1.57;;;1.07;;
13279;SDS011;6708;49.814;8.652;2022-10-16T12:03:28;1.30;;;1.20;;
13279;SDS011;6708;49.814;8.652;2022-10-16T12:06:02;2.53;;;0.77;;
13279;SDS011;6708;49.814;8.652;2022-10-16T12:08:40;6.63;;;1.10;;
13279;SDS011;6708;49.814;8.652;2022-10-16T12:11:19;0.90;;;0.90;;
13279;SDS011;6708;49.814;8.652;2022-10-16T12:14:03;1.03;;;1.03;;
13279;SDS011;6708;49.814;8.652;2022-10-16T12:16:33;1.13;;;1.07;;
13279;SDS011;6708;49.814;8.652;2022-10-16T12:19:11;0.70;;;0.70;;
13279;SDS011;6708;49.814;8.652;2022-10-16T12:21:41;2.13;;;1.00;;
13279;SDS011;6708;49.814;8.652;2022-10-16T12:24:21;0.93;;;0.75;;
13279;SDS011;6708;49.814;8.652;2022-10-16T12:26:57;2.28;;;0.90;;
13279;SDS011;6708;49.814;8.652;2022-10-16T12:29:32;1.23;;;1.00;;
13279;SDS011;6708;49.814;8.652;2022-10-16T12:32:02;0.80;;;0.80;;
13279;SDS011;6708;49.814;8.652;2022-10-16T12:34:36;1.20;;;1.13;;
13279;SDS011;6708;49.814;8.652;2022-10-16T12:37:11;0.82;;;0.82;;
13279;SDS011;6708;49.814;8.652;2022-10-16T12:39:42;1.00;;;0.95;;
13279;SDS011;6708;49.814;8.652;2022-10-16T12:42:22;2.05;;;0.85;;
13279;SDS011;6708;49.814;8.652;2022-10-16T12:45:01;3.40;;;1.02;;
13279;SDS011;6708;49.814;8.652;2022-10-16T12:47:47;0.90;;;0.90;;
13279;SDS011;6708;49.814;8.652;2022-10-16T12:50:28;1.03;;;0.97;;
13279;SDS011;6708;49.814;8.652;2022-10-16T12:52:59;1.77;;;1.00;;
13279;SDS011;6708;49.814;8.652;2022-10-16T12:55:32;4.73;;;1.33;;
13279;SDS011;6708;49.814;8.652;2022-10-16T12:58:06;1.03;;;1.03;;
13279;SDS011;6708;49.814;8.652;2022-10-16T13:00:44;0.77;;;0.77;;
13279;SDS011;6708;49.814;8.652;2022-10-16T13:03:30;0.90;;;0.90;;
13279;SDS011;6708;49.814;8.652;2022-10-16T13:06:13;0.80;;;0.80;;
13279;SDS011;6708;49.814;8.652;2022-10-16T13:08:55;0.83;;;0.83;;
13279;SDS011;6708;49.814;8.652;2022-10-16T13:11:48;0.87;;;0.87;;
13279;SDS011;6708;49.814;8.652;2022-10-16T13:17:19;1.23;;;1.10;;
13279;SDS011;6708;49.814;8.652;2022-10-16T13:19:52;1.00;;;1.00;;
13279;SDS011;6708;49.814;8.652;2022-10-16T13:22:29;2.17;;;1.00;;
13279;SDS011;6708;49.814;8.652;2022-10-16T13:25:08;1.10;;;1.00;;
13279;SDS011;6708;49.814;8.652;2022-10-16T13:27:46;1.10;;;1.10;;
13279;SDS011;6708;49.814;8.652;2022-10-16T13:30:21;1.70;;;1.60;;
13279;SDS011;6708;49.814;8.652;2022-10-16T13:32:59;0.80;;;0.80;;
13279;SDS011;6708;49.814;8.652;2022-10-16T13:35:30;2.47;;;1.00;;
13279;SDS011;6708;49.814;8.652;2022-10-16T13:38:04;2.00;;;1.10;;
13279;SDS011;6708;49.814;8.652;2022-10-16T13:40:33;0.97;;;0.97;;
13279;SDS011;6708;49.814;8.652;2022-10-16T13:43:02;0.93;;;0.93;;
13279;SDS011;6708;49.814;8.652;2022-10-16T13:45:31;1.00;;;1.00;;
13279;SDS011;6708;49.814;8.652;2022-10-16T13:48:09;1.17;;;1.07;;
13279;SDS011;6708;49.814;8.652;2022-10-16T13:50:38;0.70;;;0.70;;
13279;SDS011;6708;49.814;8.652;2022-10-16T13:53:09;1.17;;;1.07;;
13279;SDS011;6708;49.814;8.652;2022-10-16T13:55:42;0.87;;;0.87;;
13279;SDS011;6708;49.814;8.652;2022-10-16T13:58:13;0.67;;;0.67;;
13279;SDS011;6708;49.814;8.652;2022-10-16T14:00:52;2.27;;;0.80;;
13279;SDS011;6708;49.814;8.652;2022-10-16T14:03:25;0.90;;;0.90;;
13279;SDS011;6708;49.814;8.652;2022-10-16T14:05:55;1.20;;;1.20;;
13279;SDS011;6708;49.814;8.652;2022-10-16T14:08:26;0.80;;;0.80;;
13279;SDS011;6708;49.814;8.652;2022-10-16T14:10:59;1.00;;;1.00;;
13279;SDS011;6708;49.814;8.652;2022-10-16T14:13:31;1.33;;;1.00;;
13279;SDS011;6708;49.814;8.652;2022-10-16T14:16:02;0.80;;;0.80;;
13279;SDS011;6708;49.814;8.652;2022-10-16T14:18:38;1.53;;;1.03;;
13279;SDS011;6708;49.814;8.652;2022-10-16T14:21:11;0.73;;;0.73;;
13279;SDS011;6708;49.814;8.652;2022-10-16T14:23:41;4.53;;;1.20;;
13279;SDS011;6708;49.814;8.652;2022-10-16T14:26:17;0.93;;;0.93;;
13279;SDS011;6708;49.814;8.652;2022-10-16T14:28:47;1.33;;;0.80;;
13279;SDS011;6708;49.814;8.652;2022-10-16T14:31:24;0.83;;;0.83;;
13279;SDS011;6708;49.814;8.652;2022-10-16T14:34:01;0.97;;;0.70;;
13279;SDS011;6708;49.814;8.652;2022-10-16T14:36:30;1.60;;;0.80;;
13279;SDS011;6708;49.814;8.652;2022-10-16T14:39:00;1.43;;;1.10;;
13279;SDS011;6708;49.814;8.652;2022-10-16T14:41:31;1.33;;;1.23;;
13279;SDS011;6708;49.814;8.652;2022-10-16T14:44:02;1.17;;;0.90;;
13279;SDS011;6708;49.814;8.652;2022-10-16T14:46:32;2.63;;;1.20;;
13279;SDS011;6708;49.814;8.652;2022-10-16T14:49:15;0.97;;;0.97;;
13279;SDS011;6708;49.814;8.652;2022-10-16T14:51:45;0.90;;;0.90;;
13279;SDS011;6708;49.814;8.652;2022-10-16T14:54:13;3.60;;;1.20;;
13279;SDS011;6708;49.814;8.652;2022-10-16T14:56:47;0.83;;;0.83;;
13279;SDS011;6708;49.814;8.652;2022-10-16T14:59:18;2.30;;;0.90;;
13279;SDS011;6708;49.814;8.652;2022-10-16T15:01:56;2.10;;;1.07;;
13279;SDS011;6708;49.814;8.652;2022-10-16T15:04:27;1.10;;;1.10;;
13279;SDS011;6708;49.814;8.652;2022-10-16T15:06:56;1.20;;;1.10;;
13279;SDS011;6708;49.814;8.652;2022-10-16T15:09:24;2.50;;;1.20;;
13279;SDS011;6708;49.814;8.652;2022-10-16T15:11:53;1.10;;;1.10;;
13279;SDS011;6708;49.814;8.652;2022-10-16T15:14:21;0.80;;;0.80;;
13279;SDS011;6708;49.814;8.652;2022-10-16T15:16:50;1.37;;;1.03;;
13279;SDS011;6708;49.814;8.652;2022-10-16T15:19:19;0.90;;;0.90;;
13279;SDS011;6708;49.814;8.652;2022-10-16T15:21:50;0.70;;;0.70;;
13279;SDS011;6708;49.814;8.652;2022-10-16T15:24:18;1.07;;;1.07;;
13279;SDS011;6708;49.814;8.652;2022-10-16T15:26:47;0.77;;;0.77;;
13279;SDS011;6708;49.814;8.652;2022-10-16T15:29:16;0.70;;;0.70;;
13279;SDS011;6708;49.814;8.652;2022-10-16T15:31:44;0.60;;;0.60;;
13279;SDS011;6708;49.814;8.652;2022-10-16T15:34:13;2.30;;;1.00;;